sensor_id;sensor_type;location;lat;lon;timestamp;P1;durP1;ratioP1;P2;durP2;ratioP2
72464;SDS011;60471;52.150;4.508;2022-08-19T00:00:30;14.68;;;6.95;;
72464;SDS011;60471;52.150;4.508;2022-08-19T00:02:56;14.88;;;5.22;;
72464;SDS011;60471;52.150;4.508;2022-08-19T00:05:23;13.90;;;5.97;;
72464;SDS011;60471;52.150;4.508;2022-08-19T00:07:49;13.43;;;6.07;;
72464;SDS011;60471;52.150;4.508;2022-08-19T00:10:16;11.55;;;5.80;;
72464;SDS011;60471;52.150;4.508;2022-08-19T00:12:44;19.02;;;7.75;;
72464;SDS011;60471;52.150;4.508;2022-08-19T00:15:15;22.05;;;8.35;;
72464;SDS011;60471;52.150;4.508;2022-08-19T00:17:45;21.42;;;7.28;;
72464;SDS011;60471;52.150;4.508;2022-08-19T00:20:14;14.95;;;6.20;;
72464;SDS011;60471;52.150;4.508;2022-08-19T00:22:44;14.75;;;6.03;;
72464;SDS011;60471;52.150;4.508;2022-08-19T00:25:13;15.38;;;6.45;;
72464;SDS011;60471;52.150;4.508;2022-08-19T00:27:40;14.38;;;5.97;;
72464;SDS011;60471;52.150;4.508;2022-08-19T00:30:07;17.05;;;6.70;;
72464;SDS011;60471;52.150;4.508;2022-08-19T00:32:35;14.40;;;6.85;;
72464;SDS011;60471;52.150;4.508;2022-08-19T00:35:02;17.73;;;7.65;;
72464;SDS011;60471;52.150;4.508;2022-08-19T00:37:29;20.63;;;8.23;;
72464;SDS011;60471;52.150;4.508;2022-08-19T00:39:55;17.48;;;7.22;;
72464;SDS011;60471;52.150;4.508;2022-08-19T00:42:22;16.60;;;7.35;;
72464;SDS011;60471;52.150;4.508;2022-08-19T00:44:49;16.58;;;7.80;;
72464;SDS011;60471;52.150;4.508;2022-08-19T00:47:16;20.67;;;8.63;;
72464;SDS011;60471;52.150;4.508;2022-08-19T00:49:43;16.08;;;7.53;;
72464;SDS011;60471;52.150;4.508;2022-08-19T00:52:21;17.30;;;8.25;;
72464;SDS011;60471;52.150;4.508;2022-08-19T00:54:54;18.77;;;8.38;;
72464;SDS011;60471;52.150;4.508;2022-08-19T00:57:25;17.58;;;7.47;;
72464;SDS011;60471;52.150;4.508;2022-08-19T00:59:59;22.67;;;7.70;;
72464;SDS011;60471;52.150;4.508;2022-08-19T01:02:28;17.83;;;7.95;;
72464;SDS011;60471;52.150;4.508;2022-08-19T01:04:56;13.63;;;6.40;;
72464;SDS011;60471;52.150;4.508;2022-08-19T01:07:24;13.25;;;6.88;;
72464;SDS011;60471;52.150;4.508;2022-08-19T01:09:51;18.17;;;8.07;;
72464;SDS011;60471;52.150;4.508;2022-08-19T01:12:18;13.38;;;8.23;;
72464;SDS011;60471;52.150;4.508;2022-08-19T01:14:44;19.00;;;8.98;;
72464;SDS011;60471;52.150;4.508;2022-08-19T01:17:12;20.80;;;9.52;;
72464;SDS011;60471;52.150;4.508;2022-08-19T01:19:41;19.63;;;7.95;;
72464;SDS011;60471;52.150;4.508;2022-08-19T01:22:14;18.50;;;9.70;;
72464;SDS011;60471;52.150;4.508;2022-08-19T01:24:48;19.25;;;9.98;;
72464;SDS011;60471;52.150;4.508;2022-08-19T01:27:17;17.05;;;9.60;;
72464;SDS011;60471;52.150;4.508;2022-08-19T01:29:45;20.65;;;10.45;;
72464;SDS011;60471;52.150;4.508;2022-08-19T01:32:13;19.80;;;9.50;;
72464;SDS011;60471;52.150;4.508;2022-08-19T01:34:42;26.65;;;10.98;;
72464;SDS011;60471;52.150;4.508;2022-08-19T01:37:12;20.40;;;10.65;;
72464;SDS011;60471;52.150;4.508;2022-08-19T01:39:40;16.85;;;9.75;;
72464;SDS011;60471;52.150;4.508;2022-08-19T01:42:08;23.73;;;10.57;;
72464;SDS011;60471;52.150;4.508;2022-08-19T01:44:38;18.23;;;11.05;;
72464;SDS011;60471;52.150;4.508;2022-08-19T01:47:07;20.58;;;10.38;;
72464;SDS011;60471;52.150;4.508;2022-08-19T01:49:35;17.58;;;11.50;;
72464;SDS011;60471;52.150;4.508;2022-08-19T01:52:02;24.33;;;11.93;;
72464;SDS011;60471;52.150;4.508;2022-08-19T01:54:30;19.80;;;10.63;;
72464;SDS011;60471;52.150;4.508;2022-08-19T01:56:59;22.95;;;12.13;;
72464;SDS011;60471;52.150;4.508;2022-08-19T01:59:32;23.25;;;12.77;;
72464;SDS011;60471;52.150;4.508;2022-08-19T02:02:02;25.77;;;13.68;;
72464;SDS011;60471;52.150;4.508;2022-08-19T02:04:33;25.25;;;15.32;;
72464;SDS011;60471;52.150;4.508;2022-08-19T02:07:00;26.40;;;14.07;;
72464;SDS011;60471;52.150;4.508;2022-08-19T02:09:26;25.67;;;13.77;;
72464;SDS011;60471;52.150;4.508;2022-08-19T02:11:53;24.58;;;14.63;;
72464;SDS011;60471;52.150;4.508;2022-08-19T02:14:19;29.02;;;15.85;;
72464;SDS011;60471;52.150;4.508;2022-08-19T02:16:45;27.80;;;16.90;;
72464;SDS011;60471;52.150;4.508;2022-08-19T02:19:11;31.73;;;16.77;;
72464;SDS011;60471;52.150;4.508;2022-08-19T02:21:37;28.48;;;16.92;;
72464;SDS011;60471;52.150;4.508;2022-08-19T02:24:04;32.38;;;18.88;;
72464;SDS011;60471;52.150;4.508;2022-08-19T02:26:31;36.97;;;19.25;;
72464;SDS011;60471;52.150;4.508;2022-08-19T02:28:58;34.75;;;20.98;;
72464;SDS011;60471;52.150;4.508;2022-08-19T02:31:25;34.30;;;19.52;;
72464;SDS011;60471;52.150;4.508;2022-08-19T02:33:54;43.10;;;23.95;;
72464;SDS011;60471;52.150;4.508;2022-08-19T02:36:21;45.13;;;26.83;;
72464;SDS011;60471;52.150;4.508;2022-08-19T02:38:49;49.58;;;25.05;;
72464;SDS011;60471;52.150;4.508;2022-08-19T02:41:20;45.10;;;27.00;;
72464;SDS011;60471;52.150;4.508;2022-08-19T02:43:53;45.65;;;26.13;;
72464;SDS011;60471;52.150;4.508;2022-08-19T02:46:25;52.15;;;26.33;;
72464;SDS011;60471;52.150;4.508;2022-08-19T02:48:58;54.58;;;27.48;;
72464;SDS011;60471;52.150;4.508;2022-08-19T02:51:30;48.13;;;25.83;;
72464;SDS011;60471;52.150;4.508;2022-08-19T02:56:28;50.80;;;27.15;;
72464;SDS011;60471;52.150;4.508;2022-08-19T02:58:54;47.25;;;24.90;;
72464;SDS011;60471;52.150;4.508;2022-08-19T03:01:23;54.45;;;27.67;;
72464;SDS011;60471;52.150;4.508;2022-08-19T03:03:56;49.83;;;26.70;;
72464;SDS011;60471;52.150;4.508;2022-08-19T03:06:25;48.85;;;26.13;;
72464;SDS011;60471;52.150;4.508;2022-08-19T03:08:52;47.13;;;27.95;;
72464;SDS011;60471;52.150;4.508;2022-08-19T03:11:21;50.03;;;26.90;;
72464;SDS011;60471;52.150;4.508;2022-08-19T03:13:53;50.22;;;26.88;;
72464;SDS011;60471;52.150;4.508;2022-08-19T03:16:22;50.38;;;28.00;;
72464;SDS011;60471;52.150;4.508;2022-08-19T03:18:51;56.65;;;28.08;;
72464;SDS011;60471;52.150;4.508;2022-08-19T03:21:21;54.92;;;29.52;;
72464;SDS011;60471;52.150;4.508;2022-08-19T03:23:53;49.40;;;28.02;;
72464;SDS011;60471;52.150;4.508;2022-08-19T03:26:21;54.90;;;28.58;;
72464;SDS011;60471;52.150;4.508;2022-08-19T03:28:47;45.95;;;24.75;;
72464;SDS011;60471;52.150;4.508;2022-08-19T03:31:16;48.53;;;26.63;;
72464;SDS011;60471;52.150;4.508;2022-08-19T03:33:50;53.55;;;29.05;;
72464;SDS011;60471;52.150;4.508;2022-08-19T03:36:21;61.35;;;29.65;;
72464;SDS011;60471;52.150;4.508;2022-08-19T03:38:51;61.17;;;30.00;;
72464;SDS011;60471;52.150;4.508;2022-08-19T03:41:22;62.13;;;30.40;;
72464;SDS011;60471;52.150;4.508;2022-08-19T03:43:53;59.67;;;30.00;;
72464;SDS011;60471;52.150;4.508;2022-08-19T03:46:26;61.00;;;29.77;;
72464;SDS011;60471;52.150;4.508;2022-08-19T03:48:57;59.22;;;29.88;;
72464;SDS011;60471;52.150;4.508;2022-08-19T03:51:27;62.00;;;31.23;;
72464;SDS011;60471;52.150;4.508;2022-08-19T03:54:02;63.80;;;30.67;;
72464;SDS011;60471;52.150;4.508;2022-08-19T03:56:34;58.95;;;32.00;;
72464;SDS011;60471;52.150;4.508;2022-08-19T03:59:03;64.50;;;30.30;;
72464;SDS011;60471;52.150;4.508;2022-08-19T04:01:32;62.35;;;31.58;;
72464;SDS011;60471;52.150;4.508;2022-08-19T04:03:59;55.63;;;29.27;;
72464;SDS011;60471;52.150;4.508;2022-08-19T04:06:27;63.58;;;30.98;;
72464;SDS011;60471;52.150;4.508;2022-08-19T04:08:57;64.47;;;31.67;;
72464;SDS011;60471;52.150;4.508;2022-08-19T04:11:28;65.30;;;33.65;;
72464;SDS011;60471;52.150;4.508;2022-08-19T04:14:04;71.93;;;36.80;;
72464;SDS011;60471;52.150;4.508;2022-08-19T04:16:31;65.85;;;35.25;;
72464;SDS011;60471;52.150;4.508;2022-08-19T04:18:59;66.55;;;32.35;;
72464;SDS011;60471;52.150;4.508;2022-08-19T04:21:28;73.57;;;33.77;;
72464;SDS011;60471;52.150;4.508;2022-08-19T04:23:55;65.63;;;32.25;;
72464;SDS011;60471;52.150;4.508;2022-08-19T04:26:24;62.65;;;33.38;;
72464;SDS011;60471;52.150;4.508;2022-08-19T04:28:54;69.50;;;32.37;;
72464;SDS011;60471;52.150;4.508;2022-08-19T04:31:22;64.28;;;33.75;;
72464;SDS011;60471;52.150;4.508;2022-08-19T04:33:57;73.68;;;34.50;;
72464;SDS011;60471;52.150;4.508;2022-08-19T04:36:32;75.35;;;34.08;;
72464;SDS011;60471;52.150;4.508;2022-08-19T04:39:04;82.05;;;36.80;;
72464;SDS011;60471;52.150;4.508;2022-08-19T04:41:33;86.22;;;38.53;;
72464;SDS011;60471;52.150;4.508;2022-08-19T04:44:18;95.65;;;40.70;;
72464;SDS011;60471;52.150;4.508;2022-08-19T04:46:45;99.95;;;42.90;;
72464;SDS011;60471;52.150;4.508;2022-08-19T04:49:14;105.40;;;43.85;;
72464;SDS011;60471;52.150;4.508;2022-08-19T04:51:43;102.10;;;43.47;;
72464;SDS011;60471;52.150;4.508;2022-08-19T04:54:13;87.68;;;41.60;;
72464;SDS011;60471;52.150;4.508;2022-08-19T04:56:42;98.05;;;43.53;;
72464;SDS011;60471;52.150;4.508;2022-08-19T04:59:09;101.13;;;43.50;;
72464;SDS011;60471;52.150;4.508;2022-08-19T05:01:36;87.45;;;42.25;;
72464;SDS011;60471;52.150;4.508;2022-08-19T05:04:03;87.82;;;38.58;;
72464;SDS011;60471;52.150;4.508;2022-08-19T05:06:32;99.68;;;40.75;;
72464;SDS011;60471;52.150;4.508;2022-08-19T05:09:01;113.78;;;43.88;;
72464;SDS011;60471;52.150;4.508;2022-08-19T05:11:32;98.15;;;42.97;;
72464;SDS011;60471;52.150;4.508;2022-08-19T05:14:05;110.20;;;43.42;;
72464;SDS011;60471;52.150;4.508;2022-08-19T05:16:32;91.70;;;41.05;;
72464;SDS011;60471;52.150;4.508;2022-08-19T05:18:59;88.20;;;40.70;;
72464;SDS011;60471;52.150;4.508;2022-08-19T05:21:46;99.80;;;39.13;;
72464;SDS011;60471;52.150;4.508;2022-08-19T05:24:31;95.93;;;42.22;;
72464;SDS011;60471;52.150;4.508;2022-08-19T05:26:59;109.63;;;43.72;;
72464;SDS011;60471;52.150;4.508;2022-08-19T05:29:28;102.60;;;39.92;;
72464;SDS011;60471;52.150;4.508;2022-08-19T05:31:57;109.25;;;42.28;;
72464;SDS011;60471;52.150;4.508;2022-08-19T05:34:25;95.75;;;41.60;;
72464;SDS011;60471;52.150;4.508;2022-08-19T05:36:56;97.80;;;40.38;;
72464;SDS011;60471;52.150;4.508;2022-08-19T05:39:26;93.47;;;39.67;;
72464;SDS011;60471;52.150;4.508;2022-08-19T05:41:57;83.63;;;38.47;;
72464;SDS011;60471;52.150;4.508;2022-08-19T05:44:27;97.50;;;39.75;;
72464;SDS011;60471;52.150;4.508;2022-08-19T05:46:57;78.22;;;36.80;;
72464;SDS011;60471;52.150;4.508;2022-08-19T05:49:25;87.55;;;41.08;;
72464;SDS011;60471;52.150;4.508;2022-08-19T05:51:53;87.65;;;38.55;;
72464;SDS011;60471;52.150;4.508;2022-08-19T05:54:21;87.97;;;37.92;;
72464;SDS011;60471;52.150;4.508;2022-08-19T05:56:50;75.75;;;37.40;;
72464;SDS011;60471;52.150;4.508;2022-08-19T05:59:18;72.20;;;35.13;;
72464;SDS011;60471;52.150;4.508;2022-08-19T06:01:47;82.50;;;36.95;;
72464;SDS011;60471;52.150;4.508;2022-08-19T06:04:16;87.85;;;36.90;;
72464;SDS011;60471;52.150;4.508;2022-08-19T06:06:51;87.53;;;35.78;;
72464;SDS011;60471;52.150;4.508;2022-08-19T06:09:20;87.28;;;34.55;;
72464;SDS011;60471;52.150;4.508;2022-08-19T06:11:49;82.72;;;35.53;;
72464;SDS011;60471;52.150;4.508;2022-08-19T06:14:20;103.80;;;39.55;;
72464;SDS011;60471;52.150;4.508;2022-08-19T06:16:51;87.78;;;36.90;;
72464;SDS011;60471;52.150;4.508;2022-08-19T06:19:18;81.78;;;36.78;;
72464;SDS011;60471;52.150;4.508;2022-08-19T06:21:48;91.60;;;38.58;;
72464;SDS011;60471;52.150;4.508;2022-08-19T06:24:18;79.45;;;35.15;;
72464;SDS011;60471;52.150;4.508;2022-08-19T06:26:49;77.60;;;36.28;;
72464;SDS011;60471;52.150;4.508;2022-08-19T06:29:19;90.78;;;35.65;;
72464;SDS011;60471;52.150;4.508;2022-08-19T06:31:49;73.47;;;35.00;;
72464;SDS011;60471;52.150;4.508;2022-08-19T06:34:19;68.35;;;33.00;;
72464;SDS011;60471;52.150;4.508;2022-08-19T06:36:49;72.72;;;31.77;;
72464;SDS011;60471;52.150;4.508;2022-08-19T06:39:24;81.70;;;32.05;;
72464;SDS011;60471;52.150;4.508;2022-08-19T06:41:55;63.38;;;30.05;;
72464;SDS011;60471;52.150;4.508;2022-08-19T06:44:26;64.37;;;30.73;;
72464;SDS011;60471;52.150;4.508;2022-08-19T06:46:55;66.47;;;29.83;;
72464;SDS011;60471;52.150;4.508;2022-08-19T06:49:22;69.18;;;30.05;;
72464;SDS011;60471;52.150;4.508;2022-08-19T06:51:49;62.70;;;27.35;;
72464;SDS011;60471;52.150;4.508;2022-08-19T06:54:16;58.78;;;27.05;;
72464;SDS011;60471;52.150;4.508;2022-08-19T06:56:44;60.95;;;28.02;;
72464;SDS011;60471;52.150;4.508;2022-08-19T06:59:12;59.60;;;27.85;;
72464;SDS011;60471;52.150;4.508;2022-08-19T07:01:44;56.42;;;27.23;;
72464;SDS011;60471;52.150;4.508;2022-08-19T07:04:24;47.25;;;23.55;;
72464;SDS011;60471;52.150;4.508;2022-08-19T07:07:02;56.00;;;25.55;;
72464;SDS011;60471;52.150;4.508;2022-08-19T07:09:39;53.70;;;26.13;;
72464;SDS011;60471;52.150;4.508;2022-08-19T07:12:10;51.05;;;25.40;;
72464;SDS011;60471;52.150;4.508;2022-08-19T07:14:40;52.70;;;22.92;;
72464;SDS011;60471;52.150;4.508;2022-08-19T07:17:09;41.63;;;20.83;;
72464;SDS011;60471;52.150;4.508;2022-08-19T07:19:38;43.08;;;22.27;;
72464;SDS011;60471;52.150;4.508;2022-08-19T07:22:06;48.65;;;20.73;;
72464;SDS011;60471;52.150;4.508;2022-08-19T07:24:34;45.33;;;20.95;;
72464;SDS011;60471;52.150;4.508;2022-08-19T07:27:02;51.47;;;21.67;;
72464;SDS011;60471;52.150;4.508;2022-08-19T07:29:30;45.97;;;23.42;;
72464;SDS011;60471;52.150;4.508;2022-08-19T07:32:00;33.83;;;16.50;;
72464;SDS011;60471;52.150;4.508;2022-08-19T07:34:29;29.33;;;14.65;;
72464;SDS011;60471;52.150;4.508;2022-08-19T07:36:58;32.05;;;15.75;;
72464;SDS011;60471;52.150;4.508;2022-08-19T07:39:26;36.53;;;16.15;;
72464;SDS011;60471;52.150;4.508;2022-08-19T07:41:57;34.05;;;14.77;;
72464;SDS011;60471;52.150;4.508;2022-08-19T07:44:26;33.38;;;14.38;;
72464;SDS011;60471;52.150;4.508;2022-08-19T07:46:54;32.80;;;14.80;;
72464;SDS011;60471;52.150;4.508;2022-08-19T07:49:23;32.75;;;13.70;;
72464;SDS011;60471;52.150;4.508;2022-08-19T07:51:52;30.88;;;14.38;;
72464;SDS011;60471;52.150;4.508;2022-08-19T07:54:25;35.95;;;13.57;;
72464;SDS011;60471;52.150;4.508;2022-08-19T07:56:54;26.25;;;9.70;;
72464;SDS011;60471;52.150;4.508;2022-08-19T07:59:22;21.27;;;9.20;;
72464;SDS011;60471;52.150;4.508;2022-08-19T08:01:50;19.73;;;7.68;;
72464;SDS011;60471;52.150;4.508;2022-08-19T08:04:17;20.58;;;8.15;;
72464;SDS011;60471;52.150;4.508;2022-08-19T08:07:03;23.92;;;7.70;;
72464;SDS011;60471;52.150;4.508;2022-08-19T08:09:50;17.13;;;7.07;;
72464;SDS011;60471;52.150;4.508;2022-08-19T08:12:24;29.02;;;7.47;;
72464;SDS011;60471;52.150;4.508;2022-08-19T08:14:58;19.85;;;6.78;;
72464;SDS011;60471;52.150;4.508;2022-08-19T08:17:30;21.35;;;6.85;;
72464;SDS011;60471;52.150;4.508;2022-08-19T08:19:57;14.32;;;6.90;;
72464;SDS011;60471;52.150;4.508;2022-08-19T08:22:24;20.42;;;8.27;;
72464;SDS011;60471;52.150;4.508;2022-08-19T08:25:10;22.95;;;9.00;;
72464;SDS011;60471;52.150;4.508;2022-08-19T08:30:11;16.88;;;7.93;;
72464;SDS011;60471;52.150;4.508;2022-08-19T08:32:49;18.70;;;7.50;;
72464;SDS011;60471;52.150;4.508;2022-08-19T08:35:18;17.88;;;6.97;;
72464;SDS011;60471;52.150;4.508;2022-08-19T08:37:51;17.10;;;6.28;;
72464;SDS011;60471;52.150;4.508;2022-08-19T08:43:23;15.55;;;6.65;;
72464;SDS011;60471;52.150;4.508;2022-08-19T08:45:59;22.35;;;6.43;;
72464;SDS011;60471;52.150;4.508;2022-08-19T08:54:13;16.08;;;5.95;;
72464;SDS011;60471;52.150;4.508;2022-08-19T08:56:44;18.42;;;7.05;;
72464;SDS011;60471;52.150;4.508;2022-08-19T08:59:21;17.92;;;6.00;;
72464;SDS011;60471;52.150;4.508;2022-08-19T09:01:59;19.58;;;6.32;;
72464;SDS011;60471;52.150;4.508;2022-08-19T09:04:25;16.90;;;6.40;;
72464;SDS011;60471;52.150;4.508;2022-08-19T09:10:10;17.33;;;6.90;;
72464;SDS011;60471;52.150;4.508;2022-08-19T09:12:52;34.33;;;17.60;;
72464;SDS011;60471;52.150;4.508;2022-08-19T09:15:34;17.13;;;6.35;;
72464;SDS011;60471;52.150;4.508;2022-08-19T09:18:07;17.27;;;5.90;;
72464;SDS011;60471;52.150;4.508;2022-08-19T09:20:34;14.55;;;5.75;;
72464;SDS011;60471;52.150;4.508;2022-08-19T09:23:00;13.73;;;5.25;;
72464;SDS011;60471;52.150;4.508;2022-08-19T09:25:28;17.55;;;5.95;;
72464;SDS011;60471;52.150;4.508;2022-08-19T09:27:56;14.73;;;5.78;;
72464;SDS011;60471;52.150;4.508;2022-08-19T09:30:24;18.90;;;5.70;;
72464;SDS011;60471;52.150;4.508;2022-08-19T09:32:53;15.32;;;5.50;;
72464;SDS011;60471;52.150;4.508;2022-08-19T09:35:22;13.95;;;4.93;;
72464;SDS011;60471;52.150;4.508;2022-08-19T09:37:52;14.55;;;5.35;;
72464;SDS011;60471;52.150;4.508;2022-08-19T09:40:19;12.63;;;5.07;;
72464;SDS011;60471;52.150;4.508;2022-08-19T09:42:45;13.52;;;4.80;;
72464;SDS011;60471;52.150;4.508;2022-08-19T09:45:14;12.85;;;4.07;;
72464;SDS011;60471;52.150;4.508;2022-08-19T09:47:43;15.82;;;4.30;;
72464;SDS011;60471;52.150;4.508;2022-08-19T09:50:11;14.77;;;4.47;;
72464;SDS011;60471;52.150;4.508;2022-08-19T09:52:38;15.48;;;3.97;;
72464;SDS011;60471;52.150;4.508;2022-08-19T09:55:08;13.50;;;4.30;;
72464;SDS011;60471;52.150;4.508;2022-08-19T09:57:36;18.83;;;4.80;;
72464;SDS011;60471;52.150;4.508;2022-08-19T10:00:04;15.40;;;3.90;;
72464;SDS011;60471;52.150;4.508;2022-08-19T10:02:34;14.60;;;3.92;;
72464;SDS011;60471;52.150;4.508;2022-08-19T10:05:01;15.70;;;4.15;;
72464;SDS011;60471;52.150;4.508;2022-08-19T10:07:46;10.70;;;3.50;;
72464;SDS011;60471;52.150;4.508;2022-08-19T10:10:13;12.40;;;3.40;;
72464;SDS011;60471;52.150;4.508;2022-08-19T10:12:39;12.70;;;3.85;;
72464;SDS011;60471;52.150;4.508;2022-08-19T10:15:06;12.13;;;3.75;;
72464;SDS011;60471;52.150;4.508;2022-08-19T10:17:33;13.10;;;3.60;;
72464;SDS011;60471;52.150;4.508;2022-08-19T10:20:01;12.25;;;3.10;;
72464;SDS011;60471;52.150;4.508;2022-08-19T10:22:30;14.23;;;3.70;;
72464;SDS011;60471;52.150;4.508;2022-08-19T10:24:56;17.38;;;4.30;;
72464;SDS011;60471;52.150;4.508;2022-08-19T10:27:22;11.70;;;4.22;;
72464;SDS011;60471;52.150;4.508;2022-08-19T10:29:49;11.13;;;3.65;;
72464;SDS011;60471;52.150;4.508;2022-08-19T10:32:15;11.00;;;4.03;;
72464;SDS011;60471;52.150;4.508;2022-08-19T10:34:42;11.70;;;4.75;;
72464;SDS011;60471;52.150;4.508;2022-08-19T10:37:08;13.00;;;3.65;;
72464;SDS011;60471;52.150;4.508;2022-08-19T10:39:35;11.23;;;3.30;;
72464;SDS011;60471;52.150;4.508;2022-08-19T10:42:06;14.25;;;3.28;;
72464;SDS011;60471;52.150;4.508;2022-08-19T10:44:33;12.20;;;2.70;;
72464;SDS011;60471;52.150;4.508;2022-08-19T10:47:01;11.18;;;2.83;;
72464;SDS011;60471;52.150;4.508;2022-08-19T10:49:28;10.80;;;2.85;;
72464;SDS011;60471;52.150;4.508;2022-08-19T10:51:55;12.40;;;2.72;;
72464;SDS011;60471;52.150;4.508;2022-08-19T10:54:40;9.63;;;2.22;;
72464;SDS011;60471;52.150;4.508;2022-08-19T10:57:25;8.98;;;2.30;;
72464;SDS011;60471;52.150;4.508;2022-08-19T10:59:55;10.68;;;2.28;;
72464;SDS011;60471;52.150;4.508;2022-08-19T11:02:22;9.30;;;2.28;;
72464;SDS011;60471;52.150;4.508;2022-08-19T11:04:48;10.52;;;2.80;;
72464;SDS011;60471;52.150;4.508;2022-08-19T11:07:17;9.27;;;2.30;;
72464;SDS011;60471;52.150;4.508;2022-08-19T11:09:43;12.20;;;2.95;;
72464;SDS011;60471;52.150;4.508;2022-08-19T11:12:09;9.32;;;2.50;;
72464;SDS011;60471;52.150;4.508;2022-08-19T11:14:36;9.43;;;2.05;;
72464;SDS011;60471;52.150;4.508;2022-08-19T11:17:03;8.52;;;2.08;;
72464;SDS011;60471;52.150;4.508;2022-08-19T11:19:31;7.32;;;1.70;;
72464;SDS011;60471;52.150;4.508;2022-08-19T11:21:59;7.03;;;2.00;;
72464;SDS011;60471;52.150;4.508;2022-08-19T11:24:27;10.00;;;2.25;;
72464;SDS011;60471;52.150;4.508;2022-08-19T11:26:54;7.05;;;1.92;;
72464;SDS011;60471;52.150;4.508;2022-08-19T11:29:30;6.43;;;1.70;;
72464;SDS011;60471;52.150;4.508;2022-08-19T11:31:57;5.38;;;1.55;;
72464;SDS011;60471;52.150;4.508;2022-08-19T11:34:25;11.30;;;1.75;;
72464;SDS011;60471;52.150;4.508;2022-08-19T11:36:54;10.50;;;1.95;;
72464;SDS011;60471;52.150;4.508;2022-08-19T11:39:26;9.38;;;2.25;;
72464;SDS011;60471;52.150;4.508;2022-08-19T11:41:59;9.87;;;2.20;;
72464;SDS011;60471;52.150;4.508;2022-08-19T11:44:27;6.30;;;1.90;;
72464;SDS011;60471;52.150;4.508;2022-08-19T11:46:56;5.65;;;1.70;;
72464;SDS011;60471;52.150;4.508;2022-08-19T11:49:23;10.45;;;3.45;;
72464;SDS011;60471;52.150;4.508;2022-08-19T11:51:49;8.77;;;2.00;;
72464;SDS011;60471;52.150;4.508;2022-08-19T11:54:16;6.43;;;1.73;;
72464;SDS011;60471;52.150;4.508;2022-08-19T11:56:43;9.88;;;2.40;;
72464;SDS011;60471;52.150;4.508;2022-08-19T11:59:11;8.00;;;2.00;;
72464;SDS011;60471;52.150;4.508;2022-08-19T12:01:38;8.60;;;2.30;;
72464;SDS011;60471;52.150;4.508;2022-08-19T12:04:06;9.07;;;2.28;;
72464;SDS011;60471;52.150;4.508;2022-08-19T12:06:32;8.60;;;2.20;;
72464;SDS011;60471;52.150;4.508;2022-08-19T12:09:03;14.15;;;2.20;;
72464;SDS011;60471;52.150;4.508;2022-08-19T12:11:34;8.45;;;1.77;;
72464;SDS011;60471;52.150;4.508;2022-08-19T12:14:02;11.63;;;2.10;;
72464;SDS011;60471;52.150;4.508;2022-08-19T12:16:29;10.02;;;2.25;;
72464;SDS011;60471;52.150;4.508;2022-08-19T12:18:58;7.50;;;2.05;;
72464;SDS011;60471;52.150;4.508;2022-08-19T12:21:29;11.10;;;3.22;;
72464;SDS011;60471;52.150;4.508;2022-08-19T12:24:00;11.07;;;2.05;;
72464;SDS011;60471;52.150;4.508;2022-08-19T12:26:28;8.82;;;1.98;;
72464;SDS011;60471;52.150;4.508;2022-08-19T12:28:56;10.90;;;3.40;;
72464;SDS011;60471;52.150;4.508;2022-08-19T12:31:25;8.95;;;3.03;;
72464;SDS011;60471;52.150;4.508;2022-08-19T12:33:53;9.60;;;2.25;;
72464;SDS011;60471;52.150;4.508;2022-08-19T12:36:20;10.20;;;2.30;;
72464;SDS011;60471;52.150;4.508;2022-08-19T12:38:48;7.60;;;2.10;;
72464;SDS011;60471;52.150;4.508;2022-08-19T12:41:15;5.75;;;1.67;;
72464;SDS011;60471;52.150;4.508;2022-08-19T12:43:44;9.05;;;2.13;;
72464;SDS011;60471;52.150;4.508;2022-08-19T12:46:11;7.68;;;1.80;;
72464;SDS011;60471;52.150;4.508;2022-08-19T12:48:38;9.80;;;1.92;;
72464;SDS011;60471;52.150;4.508;2022-08-19T12:51:08;7.22;;;1.83;;
72464;SDS011;60471;52.150;4.508;2022-08-19T12:56:06;7.57;;;1.80;;
72464;SDS011;60471;52.150;4.508;2022-08-19T12:58:35;7.47;;;2.38;;
72464;SDS011;60471;52.150;4.508;2022-08-19T13:01:11;8.23;;;2.05;;
72464;SDS011;60471;52.150;4.508;2022-08-19T13:03:41;10.57;;;1.52;;
72464;SDS011;60471;52.150;4.508;2022-08-19T13:06:09;7.03;;;1.98;;
72464;SDS011;60471;52.150;4.508;2022-08-19T13:08:35;7.95;;;2.10;;
72464;SDS011;60471;52.150;4.508;2022-08-19T13:11:14;6.63;;;1.63;;
72464;SDS011;60471;52.150;4.508;2022-08-19T13:13:45;7.53;;;1.70;;
72464;SDS011;60471;52.150;4.508;2022-08-19T13:16:14;7.72;;;1.73;;
72464;SDS011;60471;52.150;4.508;2022-08-19T13:18:41;6.10;;;1.92;;
72464;SDS011;60471;52.150;4.508;2022-08-19T13:21:10;7.07;;;1.95;;
72464;SDS011;60471;52.150;4.508;2022-08-19T13:23:39;7.28;;;1.70;;
72464;SDS011;60471;52.150;4.508;2022-08-19T13:26:07;6.38;;;1.80;;
72464;SDS011;60471;52.150;4.508;2022-08-19T13:28:37;5.38;;;1.80;;
72464;SDS011;60471;52.150;4.508;2022-08-19T13:31:25;5.80;;;1.65;;
72464;SDS011;60471;52.150;4.508;2022-08-19T13:34:14;10.40;;;2.22;;
72464;SDS011;60471;52.150;4.508;2022-08-19T13:36:44;9.43;;;1.80;;
72464;SDS011;60471;52.150;4.508;2022-08-19T13:39:11;5.95;;;1.95;;
72464;SDS011;60471;52.150;4.508;2022-08-19T13:41:42;10.52;;;1.92;;
72464;SDS011;60471;52.150;4.508;2022-08-19T13:44:16;14.88;;;6.97;;
72464;SDS011;60471;52.150;4.508;2022-08-19T13:46:44;7.30;;;2.05;;
72464;SDS011;60471;52.150;4.508;2022-08-19T13:49:19;7.50;;;1.80;;
72464;SDS011;60471;52.150;4.508;2022-08-19T13:51:46;5.60;;;1.98;;
72464;SDS011;60471;52.150;4.508;2022-08-19T13:54:12;7.00;;;1.70;;
72464;SDS011;60471;52.150;4.508;2022-08-19T13:56:42;6.30;;;1.58;;
72464;SDS011;60471;52.150;4.508;2022-08-19T13:59:10;8.65;;;1.98;;
72464;SDS011;60471;52.150;4.508;2022-08-19T14:01:37;7.28;;;2.28;;
72464;SDS011;60471;52.150;4.508;2022-08-19T14:04:05;12.15;;;2.60;;
72464;SDS011;60471;52.150;4.508;2022-08-19T14:06:32;8.52;;;2.10;;
72464;SDS011;60471;52.150;4.508;2022-08-19T14:08:58;5.88;;;1.73;;
72464;SDS011;60471;52.150;4.508;2022-08-19T14:11:25;6.25;;;1.80;;
72464;SDS011;60471;52.150;4.508;2022-08-19T14:13:52;7.82;;;1.80;;
72464;SDS011;60471;52.150;4.508;2022-08-19T14:16:18;6.55;;;1.90;;
72464;SDS011;60471;52.150;4.508;2022-08-19T14:18:44;6.45;;;1.98;;
72464;SDS011;60471;52.150;4.508;2022-08-19T14:21:15;6.80;;;1.75;;
72464;SDS011;60471;52.150;4.508;2022-08-19T14:23:45;6.10;;;2.08;;
72464;SDS011;60471;52.150;4.508;2022-08-19T14:26:13;5.88;;;1.70;;
72464;SDS011;60471;52.150;4.508;2022-08-19T14:28:42;7.60;;;1.73;;
72464;SDS011;60471;52.150;4.508;2022-08-19T14:31:11;7.53;;;1.60;;
72464;SDS011;60471;52.150;4.508;2022-08-19T14:33:40;5.55;;;1.70;;
72464;SDS011;60471;52.150;4.508;2022-08-19T14:36:06;8.40;;;2.08;;
72464;SDS011;60471;52.150;4.508;2022-08-19T14:38:33;7.38;;;2.00;;
72464;SDS011;60471;52.150;4.508;2022-08-19T14:41:06;6.43;;;2.08;;
72464;SDS011;60471;52.150;4.508;2022-08-19T14:43:49;12.32;;;6.47;;
72464;SDS011;60471;52.150;4.508;2022-08-19T14:46:20;7.32;;;2.00;;
72464;SDS011;60471;52.150;4.508;2022-08-19T14:48:51;8.68;;;2.40;;
72464;SDS011;60471;52.150;4.508;2022-08-19T14:51:18;8.43;;;2.40;;
72464;SDS011;60471;52.150;4.508;2022-08-19T14:53:47;8.68;;;2.60;;
72464;SDS011;60471;52.150;4.508;2022-08-19T14:56:15;8.10;;;2.05;;
72464;SDS011;60471;52.150;4.508;2022-08-19T14:58:45;9.30;;;2.40;;
72464;SDS011;60471;52.150;4.508;2022-08-19T15:01:12;8.30;;;2.85;;
72464;SDS011;60471;52.150;4.508;2022-08-19T15:03:39;8.55;;;2.63;;